createdAt,value
2019-05-18T00:00:11.219Z,6.37
2019-05-18T00:02:40.587Z,5.20
2019-05-18T00:05:10.695Z,6.67
2019-05-18T00:07:41.296Z,5.80
2019-05-18T00:10:12.334Z,5.30
2019-05-18T00:12:41.682Z,4.80
2019-05-18T00:15:12.182Z,6.07
2019-05-18T00:17:41.554Z,4.60
2019-05-18T00:20:11.526Z,6.00
2019-05-18T00:22:40.926Z,5.07
2019-05-18T00:25:10.797Z,4.90
2019-05-18T00:27:40.164Z,5.13
2019-05-18T00:30:11.747Z,6.40
2019-05-18T00:32:41.109Z,5.60
2019-05-18T00:35:11.055Z,5.83
2019-05-18T00:37:40.419Z,6.40
2019-05-18T00:40:10.246Z,7.67
2019-05-18T00:42:39.667Z,5.57
2019-05-18T00:45:09.718Z,7.00
2019-05-18T00:47:41.842Z,5.30
2019-05-18T00:50:10.977Z,5.13
2019-05-18T00:52:40.467Z,5.47
2019-05-18T00:55:10.641Z,5.97
2019-05-18T00:57:40.001Z,5.77
2019-05-18T01:00:11.066Z,5.13
2019-05-18T01:02:40.431Z,5.70
2019-05-18T01:05:10.136Z,7.73
2019-05-18T01:07:39.511Z,6.70
2019-05-18T01:10:10.886Z,6.83
2019-05-18T01:12:40.341Z,6.20
2019-05-18T01:15:11.205Z,6.80
2019-05-18T01:17:40.621Z,6.10
2019-05-18T01:20:10.613Z,7.03
2019-05-18T01:22:40.020Z,5.37
2019-05-18T01:25:09.996Z,6.53
2019-05-18T01:27:39.360Z,7.27
2019-05-18T01:30:10.057Z,5.80
2019-05-18T01:32:39.414Z,6.67
2019-05-18T01:35:09.495Z,6.93
2019-05-18T01:37:38.920Z,5.63
2019-05-18T01:40:09.400Z,5.70
2019-05-18T01:42:39.324Z,5.43
2019-05-18T01:45:16.754Z,6.30
2019-05-18T01:47:40.921Z,5.27
2019-05-18T01:50:10.793Z,6.53
2019-05-18T01:52:40.271Z,6.53
2019-05-18T02:14:50.518Z,6.27
2019-05-18T02:17:19.877Z,6.20
2019-05-18T02:19:49.247Z,5.37
2019-05-18T02:22:18.635Z,6.97
2019-05-18T02:24:48.007Z,6.93
2019-05-18T02:27:17.381Z,5.57
2019-05-18T02:29:46.748Z,7.37
2019-05-18T02:32:16.112Z,6.27
2019-05-18T02:34:47.056Z,6.53
2019-05-18T02:37:16.840Z,7.47
2019-05-18T02:39:46.193Z,6.53
2019-05-18T02:42:15.557Z,5.80
2019-05-18T02:44:44.949Z,6.70
2019-05-18T02:47:14.320Z,6.73
2019-05-18T02:49:43.689Z,6.37
2019-05-18T02:52:13.148Z,6.27
2019-05-18T02:54:42.533Z,5.10
2019-05-18T02:57:11.908Z,4.87
2019-05-18T02:59:41.684Z,6.00
2019-05-18T03:02:11.068Z,5.40
2019-05-18T03:04:40.499Z,4.97
2019-05-18T03:07:09.896Z,6.20
2019-05-18T03:09:39.331Z,5.67
2019-05-18T03:12:08.699Z,5.75
2019-05-18T03:14:38.083Z,6.90
2019-05-18T03:17:07.448Z,5.67
2019-05-18T03:19:36.822Z,5.40
2019-05-18T03:22:06.865Z,6.53
2019-05-18T03:24:36.237Z,5.43
2019-05-18T03:27:06.439Z,5.77
2019-05-18T03:29:35.837Z,5.90
2019-05-18T03:32:05.208Z,4.90
2019-05-18T03:34:34.556Z,5.20
2019-05-18T03:37:04.913Z,7.50
2019-05-18T03:39:34.278Z,6.50
2019-05-18T03:42:04.402Z,6.37
2019-05-18T03:44:33.891Z,8.10
2019-05-18T03:47:03.301Z,6.73
2019-05-18T03:49:32.632Z,7.90
2019-05-18T03:52:02.015Z,5.40
2019-05-18T03:54:31.376Z,6.10
2019-05-18T03:57:00.749Z,6.80
2019-05-18T03:59:30.153Z,5.40
2019-05-18T04:01:59.526Z,6.47
2019-05-18T04:04:28.896Z,6.73
2019-05-18T04:06:58.627Z,5.70
2019-05-18T04:09:27.995Z,6.87
2019-05-18T04:11:57.377Z,7.73
2019-05-18T04:14:26.780Z,7.30
2019-05-18T04:16:58.590Z,7.47
2019-05-18T04:19:44.928Z,9.07
2019-05-18T04:21:59.172Z,9.10
2019-05-18T04:24:28.556Z,8.80
2019-05-18T04:26:57.933Z,7.43
2019-05-18T04:29:27.350Z,11.03
2019-05-18T04:31:56.725Z,6.37
2019-05-18T04:34:26.097Z,7.20
2019-05-18T04:36:55.481Z,6.90
2019-05-18T04:39:24.857Z,9.00
2019-05-18T04:41:54.352Z,9.13
2019-05-18T04:44:24.166Z,12.87
2019-05-18T04:46:53.548Z,13.47
2019-05-18T04:49:22.920Z,12.97
2019-05-18T04:51:52.301Z,13.30
2019-05-18T04:54:21.703Z,12.17
2019-05-18T04:56:51.084Z,12.40
2019-05-18T04:59:20.454Z,10.17
2019-05-18T05:01:49.876Z,10.50
2019-05-18T05:04:19.210Z,9.20
2019-05-18T05:06:48.638Z,8.17
2019-05-18T05:09:18.006Z,8.10
2019-05-18T05:11:47.375Z,8.77
2019-05-18T05:14:16.756Z,8.13
2019-05-18T05:16:46.125Z,8.43
2019-05-18T05:19:15.484Z,8.37
2019-05-18T05:21:44.882Z,8.07
2019-05-18T05:24:14.261Z,8.10
2019-05-18T05:26:43.629Z,8.35
2019-05-18T05:29:13.345Z,8.10
2019-05-18T05:31:42.715Z,9.30
2019-05-18T05:34:12.076Z,8.77
2019-05-18T05:36:41.471Z,9.17
2019-05-18T05:39:10.850Z,10.13
2019-05-18T05:41:40.472Z,9.67
2019-05-18T05:44:09.843Z,9.33
2019-05-18T05:46:39.220Z,9.63
2019-05-18T05:49:08.586Z,9.47
2019-05-18T05:51:38.808Z,9.70
2019-05-18T05:54:08.179Z,9.30
2019-05-18T05:56:37.552Z,10.40
2019-05-18T05:59:07.002Z,9.13
2019-05-18T06:01:36.631Z,10.63
2019-05-18T06:04:06.000Z,9.17
2019-05-18T06:06:35.398Z,11.07
2019-05-18T06:09:07.085Z,9.57
2019-05-18T06:11:37.280Z,8.37
2019-05-18T06:14:06.684Z,6.93
2019-05-18T06:16:36.068Z,9.97
2019-05-18T06:19:05.507Z,8.60
2019-05-18T06:21:34.891Z,7.93
2019-05-18T06:24:04.284Z,8.97
2019-05-18T06:26:33.679Z,7.65
2019-05-18T06:29:03.066Z,8.30
2019-05-18T06:31:32.454Z,8.07
2019-05-18T06:34:01.811Z,8.27
2019-05-18T06:36:31.257Z,8.10
2019-05-18T06:39:00.634Z,8.80
2019-05-18T06:41:30.053Z,7.37
2019-05-18T06:43:59.738Z,10.00
2019-05-18T06:46:29.109Z,8.03
2019-05-18T06:48:58.483Z,8.53
2019-05-18T06:51:27.893Z,8.00
2019-05-18T06:53:57.288Z,8.43
2019-05-18T06:56:27.176Z,8.37
2019-05-18T06:58:59.828Z,8.27
2019-05-18T07:01:29.213Z,8.07
2019-05-18T07:03:58.638Z,7.20
2019-05-18T07:06:28.028Z,9.00
2019-05-18T07:08:57.863Z,7.97
2019-05-18T07:11:27.300Z,8.53
2019-05-18T07:13:56.677Z,8.10
2019-05-18T07:16:26.052Z,6.60
2019-05-18T07:18:55.416Z,7.53
2019-05-18T07:21:24.976Z,6.40
2019-05-18T07:23:54.355Z,7.57
2019-05-18T07:26:23.730Z,7.13
2019-05-18T07:28:53.116Z,6.90
2019-05-18T07:31:22.548Z,6.40
2019-05-18T07:33:51.918Z,6.30
2019-05-18T07:36:21.363Z,6.70
2019-05-18T07:38:51.289Z,5.80
2019-05-18T07:41:20.671Z,5.15
2019-05-18T07:43:50.066Z,5.80
2019-05-18T07:46:19.423Z,4.60
2019-05-18T07:48:48.790Z,5.07
2019-05-18T07:51:18.184Z,5.60
2019-05-18T07:53:47.578Z,4.90
2019-05-18T07:56:16.916Z,4.83
2019-05-18T07:58:46.292Z,4.83
2019-05-18T08:01:15.659Z,5.10
2019-05-18T08:03:45.015Z,4.90
2019-05-18T08:06:14.437Z,4.60
2019-05-18T08:08:43.789Z,5.00
2019-05-18T08:11:13.143Z,4.50
2019-05-18T08:13:42.516Z,4.63
2019-05-18T08:16:11.877Z,4.97
2019-05-18T08:18:41.245Z,5.97
2019-05-18T08:21:10.634Z,4.60
2019-05-18T08:23:40.001Z,5.37
2019-05-18T08:26:09.374Z,4.90
2019-05-18T08:28:38.803Z,5.60
2019-05-18T08:31:08.150Z,5.10
2019-05-18T08:33:37.488Z,5.60
2019-05-18T08:36:06.853Z,5.10
2019-05-18T08:38:36.200Z,5.07
2019-05-18T08:41:05.675Z,5.83
2019-05-18T08:43:34.990Z,4.37
2019-05-18T08:46:04.335Z,5.03
2019-05-18T08:48:34.699Z,4.73
2019-05-18T08:51:04.095Z,5.03
2019-05-18T08:53:33.451Z,4.10
2019-05-18T08:56:02.806Z,4.60
2019-05-18T08:58:32.163Z,5.23
2019-05-18T09:01:01.526Z,4.77
2019-05-18T09:03:30.876Z,4.67
2019-05-18T09:06:00.245Z,5.00
2019-05-18T09:08:29.594Z,4.27
2019-05-18T09:10:58.963Z,4.17
2019-05-18T09:13:28.367Z,4.77
2019-05-18T09:15:57.725Z,4.10
2019-05-18T09:18:27.063Z,4.43
2019-05-18T09:20:56.453Z,4.20
2019-05-18T09:23:25.816Z,4.10
2019-05-18T09:25:55.173Z,4.00
2019-05-18T09:28:24.572Z,5.03
2019-05-18T09:30:54.147Z,4.33
2019-05-18T09:33:23.504Z,4.07
2019-05-18T09:36:00.195Z,4.37
2019-05-18T09:38:33.008Z,5.00
2019-05-18T09:41:00.672Z,5.00
2019-05-18T09:43:30.054Z,4.80
2019-05-18T09:45:59.426Z,5.37
2019-05-18T09:48:28.805Z,6.10
2019-05-18T09:50:58.168Z,5.00
2019-05-18T09:53:30.025Z,4.77
2019-05-18T09:55:59.030Z,4.10
2019-05-18T09:58:28.396Z,3.53
2019-05-18T10:00:57.762Z,4.17
2019-05-18T10:03:27.279Z,4.27
2019-05-18T10:05:56.651Z,4.20
2019-05-18T10:08:26.006Z,4.93
2019-05-18T10:10:55.396Z,5.20
2019-05-18T10:13:24.764Z,5.77
2019-05-18T10:15:54.149Z,6.87
2019-05-18T10:18:23.619Z,5.90
2019-05-18T10:20:53.009Z,5.43
2019-05-18T10:23:22.415Z,5.37
2019-05-18T10:25:51.816Z,5.20
2019-05-18T10:28:21.193Z,11.37
2019-05-18T10:30:50.555Z,6.60
2019-05-18T10:33:19.935Z,6.37
2019-05-18T10:35:49.308Z,8.27
2019-05-18T10:38:18.685Z,6.10
2019-05-18T10:40:48.442Z,6.77
2019-05-18T10:43:17.818Z,6.83
2019-05-18T10:45:47.182Z,6.47
2019-05-18T10:48:16.586Z,5.83
2019-05-18T10:50:46.060Z,6.83
2019-05-18T10:53:27.814Z,5.60
2019-05-18T10:55:47.105Z,5.20
2019-05-18T10:58:16.575Z,4.97
2019-05-18T11:00:46.007Z,5.13
2019-05-18T11:03:15.421Z,4.53
2019-05-18T11:05:44.793Z,5.70
2019-05-18T11:08:14.150Z,5.20
2019-05-18T11:10:43.605Z,4.83
2019-05-18T11:13:13.037Z,5.20
2019-05-18T11:15:42.395Z,5.90
2019-05-18T11:18:11.774Z,5.50
2019-05-18T11:20:41.198Z,6.00
2019-05-18T11:23:10.489Z,5.20
2019-05-18T11:25:40.312Z,5.20
2019-05-18T11:28:09.669Z,4.93
2019-05-18T11:30:39.046Z,4.33
2019-05-18T11:33:08.442Z,4.30
2019-05-18T11:35:37.806Z,3.97
2019-05-18T11:38:07.170Z,4.17
2019-05-18T11:40:36.724Z,3.87
2019-05-18T11:43:06.156Z,4.23
2019-05-18T11:45:35.591Z,4.20
2019-05-18T11:48:05.428Z,5.30
2019-05-18T11:50:34.789Z,5.20
2019-05-18T11:53:04.164Z,6.27
2019-05-18T11:55:33.812Z,8.40
2019-05-18T11:58:03.195Z,5.80
2019-05-18T12:00:32.640Z,5.13
2019-05-18T12:03:02.404Z,6.00
2019-05-18T12:05:31.779Z,5.47
2019-05-18T12:08:01.138Z,5.27
2019-05-18T12:10:30.591Z,6.30
2019-05-18T12:12:59.984Z,5.33
2019-05-18T12:15:29.446Z,5.67
2019-05-18T12:17:58.840Z,5.50
2019-05-18T12:20:28.286Z,4.63
2019-05-18T12:22:57.650Z,4.67
2019-05-18T12:25:27.059Z,5.30
2019-05-18T12:27:56.658Z,6.17
2019-05-18T12:30:26.516Z,5.90
2019-05-18T12:32:55.951Z,5.93
2019-05-18T12:35:25.421Z,5.00
2019-05-18T12:37:54.748Z,5.83
2019-05-18T12:40:24.755Z,4.37
2019-05-18T12:42:54.129Z,4.27
2019-05-18T12:45:24.503Z,4.13
2019-05-18T12:47:53.876Z,3.60
2019-05-18T12:50:24.751Z,3.13
2019-05-18T12:52:54.122Z,3.13
2019-05-18T12:55:24.065Z,3.57
2019-05-18T12:57:53.843Z,2.70
2019-05-18T13:00:24.641Z,2.70
2019-05-18T13:02:54.021Z,3.30
2019-05-18T13:05:23.483Z,3.10
2019-05-18T13:07:52.810Z,3.37
2019-05-18T13:10:22.701Z,2.77
2019-05-18T13:12:52.065Z,3.00
2019-05-18T13:15:21.967Z,3.17
2019-05-18T13:17:51.718Z,5.20
2019-05-18T13:20:21.489Z,3.27
2019-05-18T13:22:50.869Z,3.70
2019-05-18T13:25:20.984Z,3.40
2019-05-18T13:27:50.346Z,3.37
2019-05-18T13:30:20.620Z,3.33
2019-05-18T13:32:50.007Z,3.17
2019-05-18T13:35:20.414Z,3.47
2019-05-18T13:37:49.768Z,4.40
2019-05-18T13:40:20.953Z,3.43
2019-05-18T13:42:50.312Z,3.67
2019-05-18T13:45:20.490Z,4.22
2019-05-18T13:47:49.859Z,3.00
2019-05-18T13:50:20.034Z,3.30
2019-05-18T13:52:52.095Z,2.80
2019-05-18T13:55:21.542Z,3.20
2019-05-18T13:57:50.910Z,3.20
2019-05-18T14:00:23.394Z,3.10
2019-05-18T14:02:52.811Z,3.10
2019-05-18T14:05:22.269Z,3.33
2019-05-18T14:07:51.631Z,3.13
2019-05-18T14:10:21.152Z,3.50
2019-05-18T14:12:50.524Z,3.30
2019-05-18T14:15:22.779Z,2.63
2019-05-18T14:17:51.055Z,2.93
2019-05-18T14:20:20.503Z,4.23
2019-05-18T14:22:49.865Z,2.87
2019-05-18T14:25:20.310Z,2.83
2019-05-18T14:27:49.970Z,2.93
2019-05-18T14:30:20.836Z,3.40
2019-05-18T14:32:50.215Z,3.40
2019-05-18T14:35:20.227Z,3.87
2019-05-18T14:37:49.577Z,3.53
2019-05-18T14:40:19.120Z,2.40
2019-05-18T14:42:48.493Z,2.40
2019-05-18T14:45:18.864Z,2.80
2019-05-18T14:47:48.287Z,2.60
2019-05-18T14:50:19.596Z,2.83
2019-05-18T14:52:48.911Z,2.60
2019-05-18T14:55:32.392Z,3.00
2019-05-18T14:57:50.338Z,2.50
2019-05-18T15:00:19.880Z,2.70
2019-05-18T15:02:49.631Z,2.53
2019-05-18T15:05:19.725Z,2.80
2019-05-18T15:07:49.098Z,2.50
2019-05-18T15:10:19.603Z,2.47
2019-05-18T15:12:48.971Z,2.07
2019-05-18T15:15:18.636Z,2.77
2019-05-18T15:17:48.084Z,2.07
2019-05-18T15:20:17.870Z,2.53
2019-05-18T15:22:47.225Z,2.30
2019-05-18T15:25:17.015Z,2.50
2019-05-18T15:27:46.394Z,2.23
2019-05-18T15:30:16.654Z,2.00
2019-05-18T15:32:46.152Z,2.40
2019-05-18T15:35:15.816Z,2.17
2019-05-18T15:37:45.191Z,2.40
2019-05-18T15:40:14.982Z,1.90
2019-05-18T15:42:44.365Z,8.67
2019-05-18T15:45:13.976Z,7.53
2019-05-18T15:47:43.458Z,3.60
2019-05-18T15:50:13.638Z,2.57
2019-05-18T15:52:43.069Z,2.57
2019-05-18T15:55:13.168Z,4.03
2019-05-18T15:57:42.532Z,1.73
2019-05-18T16:00:12.753Z,2.10
2019-05-18T16:02:42.136Z,2.97
2019-05-18T16:05:15.001Z,3.40
2019-05-18T16:07:44.369Z,3.90
2019-05-18T16:10:15.395Z,3.20
2019-05-18T16:12:44.785Z,3.13
2019-05-18T16:15:14.658Z,3.53
2019-05-18T16:17:44.046Z,3.23
2019-05-18T16:20:14.725Z,3.43
2019-05-18T16:22:44.597Z,3.07
2019-05-18T16:25:14.352Z,3.50
2019-05-18T16:27:43.719Z,3.83
2019-05-18T16:30:13.906Z,3.30
2019-05-18T16:32:43.326Z,3.90
2019-05-18T16:35:13.365Z,4.03
2019-05-18T16:37:42.736Z,4.10
2019-05-18T16:40:12.627Z,3.40
2019-05-18T16:42:41.981Z,3.27
2019-05-18T16:45:12.090Z,3.30
2019-05-18T16:47:41.456Z,3.07
2019-05-18T16:50:13.032Z,2.63
2019-05-18T16:52:42.425Z,2.93
2019-05-18T16:55:12.256Z,2.90
2019-05-18T16:57:41.617Z,2.93
2019-05-18T17:00:15.945Z,3.37
2019-05-18T17:02:44.769Z,3.60
2019-05-18T17:05:15.939Z,3.23
2019-05-18T17:07:46.088Z,3.87
2019-05-18T17:10:16.182Z,3.20
2019-05-18T17:12:45.560Z,3.17
2019-05-18T17:15:15.819Z,3.40
2019-05-18T17:17:45.199Z,3.80
2019-05-18T17:20:14.908Z,4.00
2019-05-18T17:22:44.233Z,3.63
2019-05-18T17:25:13.980Z,3.22
2019-05-18T17:27:43.333Z,2.93
2019-05-18T17:30:13.306Z,3.50
2019-05-18T17:32:43.097Z,4.77
2019-05-18T17:35:12.774Z,3.00
2019-05-18T17:37:42.159Z,3.13
2019-05-18T17:40:11.945Z,3.43
2019-05-18T17:42:41.299Z,3.80
2019-05-18T17:45:11.576Z,3.98
2019-05-18T17:47:40.962Z,4.03
2019-05-18T17:50:10.937Z,4.87
2019-05-18T17:52:40.967Z,6.63
2019-05-18T17:55:11.015Z,3.50
2019-05-18T17:57:40.466Z,3.10
2019-05-18T18:00:10.829Z,3.13
2019-05-18T18:02:41.068Z,2.70
2019-05-18T18:05:11.042Z,2.83
2019-05-18T18:07:40.405Z,3.03
2019-05-18T18:10:12.284Z,3.00
2019-05-18T18:12:41.638Z,3.70
2019-05-18T18:15:11.554Z,2.93
2019-05-18T18:17:40.942Z,2.80
2019-05-18T18:20:12.894Z,2.67
2019-05-18T18:22:42.281Z,2.93
2019-05-18T18:25:12.065Z,3.50
2019-05-18T18:27:41.448Z,3.00
2019-05-18T18:30:12.010Z,3.00
2019-05-18T18:32:42.063Z,3.13
2019-05-18T18:35:12.064Z,3.00
2019-05-18T18:37:41.427Z,3.03
2019-05-18T18:40:10.939Z,3.40
2019-05-18T18:42:40.306Z,3.40
2019-05-18T18:45:10.471Z,3.47
2019-05-18T18:47:39.849Z,2.83
2019-05-18T18:50:10.260Z,2.80
2019-05-18T18:52:39.771Z,2.87
2019-05-18T18:55:09.939Z,3.07
2019-05-18T18:57:41.717Z,2.93
2019-05-18T19:00:11.769Z,2.50
2019-05-18T19:02:41.183Z,2.83
2019-05-18T19:05:10.971Z,3.00
2019-05-18T19:07:40.338Z,3.23
2019-05-18T19:10:11.328Z,3.10
2019-05-18T19:12:41.026Z,3.33
2019-05-18T19:15:11.702Z,3.80
2019-05-18T19:17:41.077Z,4.10
2019-05-18T19:20:11.943Z,3.60
2019-05-18T19:22:41.296Z,3.30
2019-05-18T19:25:11.089Z,3.70
2019-05-18T19:27:52.731Z,3.70
2019-05-18T19:30:12.549Z,4.20
2019-05-18T19:32:42.250Z,3.83
2019-05-18T19:35:13.243Z,4.30
2019-05-18T19:37:42.609Z,4.10
2019-05-18T19:40:12.304Z,4.00
2019-05-18T19:42:41.663Z,3.67
2019-05-18T19:45:12.566Z,3.90
2019-05-18T19:47:42.715Z,3.93
2019-05-18T19:50:12.486Z,3.57
2019-05-18T19:52:41.885Z,3.67
2019-05-18T19:55:11.557Z,4.10
2019-05-18T19:57:40.913Z,3.90
2019-05-18T20:00:12.257Z,3.73
2019-05-18T20:02:41.643Z,3.47
2019-05-18T20:05:11.137Z,3.30
2019-05-18T20:07:40.509Z,3.47
2019-05-18T20:10:11.106Z,3.20
2019-05-18T20:12:40.475Z,3.20
2019-05-18T20:15:13.408Z,3.07
2019-05-18T20:17:42.886Z,3.60
2019-05-18T20:20:12.748Z,2.93
2019-05-18T20:22:42.130Z,3.20
2019-05-18T20:25:11.711Z,3.90
2019-05-18T20:27:41.089Z,4.13
2019-05-18T20:30:11.254Z,3.50
2019-05-18T20:32:40.631Z,3.70
2019-05-18T20:35:10.339Z,3.70
2019-05-18T20:37:39.696Z,3.80
2019-05-18T20:40:10.010Z,3.00
2019-05-18T20:42:39.410Z,3.70
2019-05-18T20:45:09.793Z,3.47
2019-05-18T20:47:39.182Z,3.40
2019-05-18T20:50:09.159Z,3.77
2019-05-18T20:52:38.540Z,3.83
2019-05-18T20:55:08.377Z,3.43
2019-05-18T20:57:37.729Z,3.87
2019-05-18T21:00:07.997Z,4.07
2019-05-18T21:02:37.827Z,3.53
2019-05-18T21:05:07.598Z,4.60
2019-05-18T21:07:36.992Z,4.13
2019-05-18T21:10:08.642Z,3.77
2019-05-18T21:12:38.078Z,4.30
2019-05-18T21:15:10.494Z,3.73
2019-05-18T21:17:41.540Z,3.87
2019-05-18T21:20:11.741Z,3.83
2019-05-18T21:22:41.136Z,3.60
2019-05-18T21:25:10.955Z,4.10
2019-05-18T21:27:40.577Z,4.10
2019-05-18T21:30:11.139Z,3.80
2019-05-18T21:32:40.536Z,3.60
2019-05-18T21:35:10.224Z,3.30
2019-05-18T21:37:39.599Z,3.80
2019-05-18T21:40:09.308Z,3.90
2019-05-18T21:42:39.357Z,3.03
2019-05-18T21:45:09.031Z,3.90
2019-05-18T21:47:38.401Z,3.80
2019-05-18T21:50:08.479Z,3.80
2019-05-18T21:52:37.855Z,3.97
2019-05-18T21:55:08.641Z,3.97
2019-05-18T21:57:38.003Z,4.73
2019-05-18T22:00:08.653Z,3.43
2019-05-18T22:02:38.435Z,3.20
2019-05-18T22:05:08.109Z,4.10
2019-05-18T22:07:37.563Z,4.33
2019-05-18T22:10:24.467Z,3.63
2019-05-18T22:12:40.124Z,3.87
2019-05-18T22:15:10.003Z,4.23
2019-05-18T22:17:57.686Z,4.10
2019-05-18T22:20:28.452Z,4.10
2019-05-18T22:22:57.818Z,3.77
2019-05-18T22:25:27.213Z,4.30
2019-05-18T22:27:56.574Z,3.20
2019-05-18T22:30:25.944Z,3.87
2019-05-18T22:32:55.325Z,4.30
2019-05-18T22:35:24.763Z,3.87
2019-05-18T22:37:54.173Z,4.20
2019-05-18T22:40:23.897Z,4.03
2019-05-18T22:42:53.249Z,3.30
2019-05-18T22:45:22.622Z,3.63
2019-05-18T22:47:52.008Z,3.77
2019-05-18T22:50:22.297Z,4.40
2019-05-18T22:52:51.665Z,4.33
2019-05-18T22:55:21.119Z,4.97
2019-05-18T22:57:50.551Z,4.00
2019-05-18T23:00:20.858Z,4.23
2019-05-18T23:02:50.725Z,4.30
2019-05-18T23:05:20.111Z,3.70
2019-05-18T23:07:49.454Z,4.70
2019-05-18T23:10:19.081Z,4.80
2019-05-18T23:12:48.451Z,4.10
2019-05-18T23:15:18.076Z,4.27
2019-05-18T23:17:47.404Z,3.67
2019-05-18T23:20:16.917Z,3.80
2019-05-18T23:22:46.282Z,4.17
2019-05-18T23:25:15.916Z,3.87
2019-05-18T23:27:45.288Z,4.70
2019-05-18T23:30:14.967Z,4.63
2019-05-18T23:32:44.376Z,4.17
2019-05-18T23:35:13.798Z,4.40
2019-05-18T23:37:43.181Z,3.40
2019-05-18T23:40:15.442Z,4.45
2019-05-18T23:42:44.811Z,4.80
2019-05-18T23:45:14.334Z,3.80
2019-05-18T23:47:44.182Z,3.90
2019-05-18T23:50:14.179Z,4.25
2019-05-18T23:52:43.559Z,3.80
2019-05-18T23:55:13.538Z,4.97
2019-05-18T23:57:42.908Z,5.33
